Sky Acres, Vermont
Current Conditions -  °F | °C
As of 3:51 AM on Wednesday 28 Jan 2015 (Local Time) from KMPV Reporting Station
Overcast Overcast  
Wind Chill: -11°   Ceiling: 12000
Heat Index:   Visibility: 10mi
Dew Point: -3°   Wind: 10mph
Humidity: 73%   Direction: 350°N
Pressure: 29.87"   Gusts: NA
Location:  44.0671°N, 72.4216°W
Report Text: KMPV 280851Z AUTO 35009KT 10SM OVC120 M16/M19 A2987 RMK AO2 SLP143 60000 T11561194 53012
Loading
Personal Weather Stations






























Interactive Weather Map New forecast layout! Learn more

10-Day Weather Forecast

Advertisements
Track Severe Weather on mobile